sensor_id;sensor_type;location;lat;lon;timestamp;temperature;humidity
34815;DHT22;21030;53.912;15.214;2023-03-14T00:02:06;26.70;37.30
34815;DHT22;21030;53.912;15.214;2023-03-14T00:04:33;27.10;37.40
34815;DHT22;21030;53.912;15.214;2023-03-14T00:07:00;27.30;36.80
34815;DHT22;21030;53.912;15.214;2023-03-14T00:09:27;28.10;35.50
34815;DHT22;21030;53.912;15.214;2023-03-14T00:11:56;27.80;35.70
34815;DHT22;21030;53.912;15.214;2023-03-14T00:14:24;27.70;35.80
34815;DHT22;21030;53.912;15.214;2023-03-14T00:16:51;28.40;35.20
34815;DHT22;21030;53.912;15.214;2023-03-14T00:19:18;28.20;35.30
34815;DHT22;21030;53.912;15.214;2023-03-14T00:21:46;28.10;35.50
34815;DHT22;21030;53.912;15.214;2023-03-14T00:24:13;27.90;35.40
34815;DHT22;21030;53.912;15.214;2023-03-14T00:26:40;28.20;35.30
34815;DHT22;21030;53.912;15.214;2023-03-14T00:29:07;28.30;34.90
34815;DHT22;21030;53.912;15.214;2023-03-14T00:31:34;28.40;34.80
34815;DHT22;21030;53.912;15.214;2023-03-14T00:34:03;27.90;34.90
34815;DHT22;21030;53.912;15.214;2023-03-14T00:36:30;27.70;35.80
34815;DHT22;21030;53.912;15.214;2023-03-14T00:38:57;28.30;35.30
34815;DHT22;21030;53.912;15.214;2023-03-14T00:41:24;28.90;34.10
34815;DHT22;21030;53.912;15.214;2023-03-14T00:43:51;30.10;33.30
34815;DHT22;21030;53.912;15.214;2023-03-14T00:46:18;29.80;32.20
34815;DHT22;21030;53.912;15.214;2023-03-14T00:48:46;30.00;32.40
34815;DHT22;21030;53.912;15.214;2023-03-14T00:51:14;30.10;32.00
34815;DHT22;21030;53.912;15.214;2023-03-14T00:53:42;30.80;31.60
34815;DHT22;21030;53.912;15.214;2023-03-14T00:56:11;30.80;31.50
34815;DHT22;21030;53.912;15.214;2023-03-14T00:58:38;30.90;31.20
34815;DHT22;21030;53.912;15.214;2023-03-14T01:01:14;31.30;30.90
34815;DHT22;21030;53.912;15.214;2023-03-14T01:03:42;30.60;30.80
34815;DHT22;21030;53.912;15.214;2023-03-14T01:06:18;30.80;31.40
34815;DHT22;21030;53.912;15.214;2023-03-14T01:08:46;30.40;31.10
34815;DHT22;21030;53.912;15.214;2023-03-14T01:11:19;30.10;31.40
34815;DHT22;21030;53.912;15.214;2023-03-14T01:13:47;30.00;31.80
34815;DHT22;21030;53.912;15.214;2023-03-14T01:16:14;29.40;32.10
34815;DHT22;21030;53.912;15.214;2023-03-14T01:18:43;29.00;32.60
34815;DHT22;21030;53.912;15.214;2023-03-14T01:23:48;28.70;33.50
34815;DHT22;21030;53.912;15.214;2023-03-14T01:26:18;29.30;32.80
34815;DHT22;21030;53.912;15.214;2023-03-14T01:28:46;29.60;32.40
34815;DHT22;21030;53.912;15.214;2023-03-14T01:31:14;29.70;32.40
34815;DHT22;21030;53.912;15.214;2023-03-14T01:33:41;30.00;31.80
34815;DHT22;21030;53.912;15.214;2023-03-14T01:36:09;29.80;32.00
34815;DHT22;21030;53.912;15.214;2023-03-14T01:38:37;29.30;32.10
34815;DHT22;21030;53.912;15.214;2023-03-14T01:41:06;30.00;31.70
34815;DHT22;21030;53.912;15.214;2023-03-14T01:43:34;29.90;31.70
34815;DHT22;21030;53.912;15.214;2023-03-14T01:49:04;29.10;32.60
34815;DHT22;21030;53.912;15.214;2023-03-14T01:56:46;30.00;31.60
34815;DHT22;21030;53.912;15.214;2023-03-14T01:59:15;29.50;31.40
34815;DHT22;21030;53.912;15.214;2023-03-14T02:01:44;28.60;33.00
34815;DHT22;21030;53.912;15.214;2023-03-14T02:04:14;28.80;32.90
34815;DHT22;21030;53.912;15.214;2023-03-14T02:06:49;28.90;33.30
34815;DHT22;21030;53.912;15.214;2023-03-14T02:09:17;29.50;32.70
34815;DHT22;21030;53.912;15.214;2023-03-14T02:11:44;28.70;32.80
34815;DHT22;21030;53.912;15.214;2023-03-14T02:14:20;28.20;33.80
34815;DHT22;21030;53.912;15.214;2023-03-14T02:16:48;28.10;34.10
34815;DHT22;21030;53.912;15.214;2023-03-14T02:19:18;28.00;34.00
34815;DHT22;21030;53.912;15.214;2023-03-14T02:22:13;28.00;34.10
34815;DHT22;21030;53.912;15.214;2023-03-14T02:27:24;27.90;34.70
34815;DHT22;21030;53.912;15.214;2023-03-14T02:32:20;27.40;34.80
34815;DHT22;21030;53.912;15.214;2023-03-14T02:34:51;27.80;34.80
34815;DHT22;21030;53.912;15.214;2023-03-14T02:37:19;28.00;34.10
34815;DHT22;21030;53.912;15.214;2023-03-14T02:39:47;27.50;34.50
34815;DHT22;21030;53.912;15.214;2023-03-14T02:42:16;27.70;34.50
34815;DHT22;21030;53.912;15.214;2023-03-14T02:44:54;27.80;34.70
34815;DHT22;21030;53.912;15.214;2023-03-14T02:47:27;27.90;34.30
34815;DHT22;21030;53.912;15.214;2023-03-14T02:49:59;27.90;34.00
34815;DHT22;21030;53.912;15.214;2023-03-14T02:52:27;27.60;34.40
34815;DHT22;21030;53.912;15.214;2023-03-14T02:54:55;27.70;34.30
34815;DHT22;21030;53.912;15.214;2023-03-14T02:57:22;27.70;34.10
34815;DHT22;21030;53.912;15.214;2023-03-14T02:59:49;27.30;35.30
34815;DHT22;21030;53.912;15.214;2023-03-14T03:02:16;27.60;34.80
34815;DHT22;21030;53.912;15.214;2023-03-14T03:04:43;28.00;33.50
34815;DHT22;21030;53.912;15.214;2023-03-14T03:07:11;27.70;33.80
34815;DHT22;21030;53.912;15.214;2023-03-14T03:09:38;28.00;34.00
34815;DHT22;21030;53.912;15.214;2023-03-14T03:12:05;27.90;33.70
34815;DHT22;21030;53.912;15.214;2023-03-14T03:14:32;28.20;33.40
34815;DHT22;21030;53.912;15.214;2023-03-14T03:17:00;28.50;33.30
34815;DHT22;21030;53.912;15.214;2023-03-14T03:19:28;28.60;33.20
34815;DHT22;21030;53.912;15.214;2023-03-14T03:21:55;28.70;33.20
34815;DHT22;21030;53.912;15.214;2023-03-14T03:24:22;28.30;32.80
34815;DHT22;21030;53.912;15.214;2023-03-14T03:26:49;28.00;33.20
34815;DHT22;21030;53.912;15.214;2023-03-14T03:29:16;28.30;33.70
34815;DHT22;21030;53.912;15.214;2023-03-14T03:31:43;29.30;32.50
34815;DHT22;21030;53.912;15.214;2023-03-14T03:34:13;30.10;31.50
34815;DHT22;21030;53.912;15.214;2023-03-14T03:36:40;30.50;30.30
34815;DHT22;21030;53.912;15.214;2023-03-14T03:39:07;30.90;30.00
34815;DHT22;21030;53.912;15.214;2023-03-14T03:41:34;31.00;29.70
34815;DHT22;21030;53.912;15.214;2023-03-14T03:44:01;30.90;29.70
34815;DHT22;21030;53.912;15.214;2023-03-14T03:46:28;31.60;29.30
34815;DHT22;21030;53.912;15.214;2023-03-14T03:48:57;31.50;29.30
34815;DHT22;21030;53.912;15.214;2023-03-14T03:51:25;31.40;29.10
34815;DHT22;21030;53.912;15.214;2023-03-14T03:53:52;30.90;29.30
34815;DHT22;21030;53.912;15.214;2023-03-14T03:56:19;31.00;29.30
34815;DHT22;21030;53.912;15.214;2023-03-14T03:58:46;30.90;29.30
34815;DHT22;21030;53.912;15.214;2023-03-14T04:01:14;30.50;29.70
34815;DHT22;21030;53.912;15.214;2023-03-14T04:03:41;30.60;30.00
34815;DHT22;21030;53.912;15.214;2023-03-14T04:06:10;31.50;29.60
34815;DHT22;21030;53.912;15.214;2023-03-14T04:08:38;31.90;28.80
34815;DHT22;21030;53.912;15.214;2023-03-14T04:11:07;31.50;28.80
34815;DHT22;21030;53.912;15.214;2023-03-14T04:13:34;31.90;28.60
34815;DHT22;21030;53.912;15.214;2023-03-14T04:16:01;31.30;28.30
34815;DHT22;21030;53.912;15.214;2023-03-14T04:18:28;31.70;28.70
34815;DHT22;21030;53.912;15.214;2023-03-14T04:20:57;31.70;28.60
34815;DHT22;21030;53.912;15.214;2023-03-14T04:23:25;31.20;28.40
34815;DHT22;21030;53.912;15.214;2023-03-14T04:25:52;30.80;29.20
34815;DHT22;21030;53.912;15.214;2023-03-14T04:28:20;29.80;29.70
34815;DHT22;21030;53.912;15.214;2023-03-14T04:30:47;29.70;30.20
34815;DHT22;21030;53.912;15.214;2023-03-14T04:33:14;28.70;31.10
34815;DHT22;21030;53.912;15.214;2023-03-14T04:35:45;28.50;31.60
34815;DHT22;21030;53.912;15.214;2023-03-14T04:38:13;28.30;32.20
34815;DHT22;21030;53.912;15.214;2023-03-14T04:40:41;27.30;33.00
34815;DHT22;21030;53.912;15.214;2023-03-14T04:43:09;27.40;33.60
34815;DHT22;21030;53.912;15.214;2023-03-14T04:45:37;27.40;33.50
34815;DHT22;21030;53.912;15.214;2023-03-14T04:48:04;27.70;33.30
34815;DHT22;21030;53.912;15.214;2023-03-14T04:50:31;28.30;32.40
34815;DHT22;21030;53.912;15.214;2023-03-14T04:52:58;27.50;32.90
34815;DHT22;21030;53.912;15.214;2023-03-14T04:55:25;26.80;34.30
34815;DHT22;21030;53.912;15.214;2023-03-14T04:57:52;27.50;34.10
34815;DHT22;21030;53.912;15.214;2023-03-14T05:00:19;27.30;33.70
34815;DHT22;21030;53.912;15.214;2023-03-14T05:02:46;27.00;34.70
34815;DHT22;21030;53.912;15.214;2023-03-14T05:05:13;28.30;33.10
34815;DHT22;21030;53.912;15.214;2023-03-14T05:07:40;28.50;32.20
34815;DHT22;21030;53.912;15.214;2023-03-14T05:10:08;29.20;32.00
34815;DHT22;21030;53.912;15.214;2023-03-14T05:12:35;28.80;31.50
34815;DHT22;21030;53.912;15.214;2023-03-14T05:15:03;28.10;32.20
34815;DHT22;21030;53.912;15.214;2023-03-14T05:17:32;27.80;32.90
34815;DHT22;21030;53.912;15.214;2023-03-14T05:20:00;27.80;33.00
34815;DHT22;21030;53.912;15.214;2023-03-14T05:22:27;27.50;33.70
34815;DHT22;21030;53.912;15.214;2023-03-14T05:24:54;28.00;33.30
34815;DHT22;21030;53.912;15.214;2023-03-14T05:27:23;27.60;32.90
34815;DHT22;21030;53.912;15.214;2023-03-14T05:29:50;26.60;34.50
34815;DHT22;21030;53.912;15.214;2023-03-14T05:32:17;26.90;34.90
34815;DHT22;21030;53.912;15.214;2023-03-14T05:34:44;26.60;34.50
34815;DHT22;21030;53.912;15.214;2023-03-14T05:37:11;26.80;34.50
34815;DHT22;21030;53.912;15.214;2023-03-14T05:39:38;27.10;34.50
34815;DHT22;21030;53.912;15.214;2023-03-14T05:42:05;27.70;33.60
34815;DHT22;21030;53.912;15.214;2023-03-14T05:44:32;27.90;33.10
34815;DHT22;21030;53.912;15.214;2023-03-14T05:46:59;28.40;32.70
34815;DHT22;21030;53.912;15.214;2023-03-14T05:49:26;28.20;32.60
34815;DHT22;21030;53.912;15.214;2023-03-14T05:51:53;27.80;33.00
34815;DHT22;21030;53.912;15.214;2023-03-14T05:54:20;28.20;32.80
34815;DHT22;21030;53.912;15.214;2023-03-14T05:56:47;28.60;32.40
34815;DHT22;21030;53.912;15.214;2023-03-14T05:59:14;28.80;31.90
34815;DHT22;21030;53.912;15.214;2023-03-14T06:01:41;29.10;31.50
34815;DHT22;21030;53.912;15.214;2023-03-14T06:04:08;29.80;31.20
34815;DHT22;21030;53.912;15.214;2023-03-14T06:06:35;30.40;30.30
34815;DHT22;21030;53.912;15.214;2023-03-14T06:09:03;30.50;29.80
34815;DHT22;21030;53.912;15.214;2023-03-14T06:11:30;30.60;29.70
34815;DHT22;21030;53.912;15.214;2023-03-14T06:13:57;29.80;30.10
34815;DHT22;21030;53.912;15.214;2023-03-14T06:16:24;29.70;30.80
34815;DHT22;21030;53.912;15.214;2023-03-14T06:18:51;29.50;30.60
34815;DHT22;21030;53.912;15.214;2023-03-14T06:21:19;29.80;31.00
34815;DHT22;21030;53.912;15.214;2023-03-14T06:23:46;29.60;30.60
34815;DHT22;21030;53.912;15.214;2023-03-14T06:26:13;29.10;30.90
34815;DHT22;21030;53.912;15.214;2023-03-14T06:28:40;28.70;31.60
34815;DHT22;21030;53.912;15.214;2023-03-14T06:31:07;28.80;32.30
34815;DHT22;21030;53.912;15.214;2023-03-14T06:33:34;29.50;31.30
34815;DHT22;21030;53.912;15.214;2023-03-14T06:36:01;29.10;31.40
34815;DHT22;21030;53.912;15.214;2023-03-14T06:38:28;29.40;31.60
34815;DHT22;21030;53.912;15.214;2023-03-14T06:40:55;29.30;31.10
34815;DHT22;21030;53.912;15.214;2023-03-14T06:43:22;29.70;31.30
34815;DHT22;21030;53.912;15.214;2023-03-14T06:45:49;30.30;30.60
34815;DHT22;21030;53.912;15.214;2023-03-14T06:48:16;30.10;30.00
34815;DHT22;21030;53.912;15.214;2023-03-14T06:50:43;30.00;30.10
34815;DHT22;21030;53.912;15.214;2023-03-14T06:53:10;30.00;30.30
34815;DHT22;21030;53.912;15.214;2023-03-14T06:55:38;30.40;30.00
34815;DHT22;21030;53.912;15.214;2023-03-14T06:58:05;30.80;29.80
34815;DHT22;21030;53.912;15.214;2023-03-14T07:00:35;30.10;30.00
34815;DHT22;21030;53.912;15.214;2023-03-14T07:03:02;29.90;30.10
34815;DHT22;21030;53.912;15.214;2023-03-14T07:05:29;28.60;31.40
34815;DHT22;21030;53.912;15.214;2023-03-14T07:07:56;28.40;32.30
34815;DHT22;21030;53.912;15.214;2023-03-14T07:10:23;28.70;32.30
34815;DHT22;21030;53.912;15.214;2023-03-14T07:12:51;28.80;31.80
34815;DHT22;21030;53.912;15.214;2023-03-14T07:15:20;28.90;32.30
34815;DHT22;21030;53.912;15.214;2023-03-14T07:17:47;29.30;31.50
34815;DHT22;21030;53.912;15.214;2023-03-14T07:20:15;29.90;30.70
34815;DHT22;21030;53.912;15.214;2023-03-14T07:22:43;29.60;30.90
34815;DHT22;21030;53.912;15.214;2023-03-14T07:25:13;28.90;31.30
34815;DHT22;21030;53.912;15.214;2023-03-14T07:27:42;28.50;32.10
34815;DHT22;21030;53.912;15.214;2023-03-14T07:30:10;28.00;33.30
34815;DHT22;21030;53.912;15.214;2023-03-14T07:32:37;27.40;33.30
34815;DHT22;21030;53.912;15.214;2023-03-14T07:35:05;27.30;34.10
34815;DHT22;21030;53.912;15.214;2023-03-14T07:37:32;27.20;34.10
34815;DHT22;21030;53.912;15.214;2023-03-14T07:39:59;27.30;34.10
34815;DHT22;21030;53.912;15.214;2023-03-14T07:42:26;27.00;35.10
34815;DHT22;21030;53.912;15.214;2023-03-14T07:44:53;27.20;34.70
34815;DHT22;21030;53.912;15.214;2023-03-14T07:47:20;27.50;34.10
34815;DHT22;21030;53.912;15.214;2023-03-14T07:49:48;27.40;33.60
34815;DHT22;21030;53.912;15.214;2023-03-14T07:52:15;27.10;34.00
34815;DHT22;21030;53.912;15.214;2023-03-14T07:54:42;27.80;33.50
34815;DHT22;21030;53.912;15.214;2023-03-14T07:57:09;27.20;33.30
34815;DHT22;21030;53.912;15.214;2023-03-14T07:59:36;27.10;34.30
34815;DHT22;21030;53.912;15.214;2023-03-14T08:02:03;27.60;33.70
34815;DHT22;21030;53.912;15.214;2023-03-14T08:04:32;27.10;33.40
34815;DHT22;21030;53.912;15.214;2023-03-14T08:07:00;26.30;35.00
34815;DHT22;21030;53.912;15.214;2023-03-14T08:09:27;26.40;35.00
34815;DHT22;21030;53.912;15.214;2023-03-14T08:11:54;25.90;34.80
34815;DHT22;21030;53.912;15.214;2023-03-14T08:14:24;25.70;35.80
34815;DHT22;21030;53.912;15.214;2023-03-14T08:16:51;26.20;35.30
34815;DHT22;21030;53.912;15.214;2023-03-14T08:19:18;25.20;35.40
34815;DHT22;21030;53.912;15.214;2023-03-14T08:21:45;25.50;35.90
34815;DHT22;21030;53.912;15.214;2023-03-14T08:24:12;25.10;36.30
34815;DHT22;21030;53.912;15.214;2023-03-14T08:26:40;25.40;36.10
34815;DHT22;21030;53.912;15.214;2023-03-14T08:29:07;25.10;36.00
34815;DHT22;21030;53.912;15.214;2023-03-14T08:31:35;24.90;36.80
34815;DHT22;21030;53.912;15.214;2023-03-14T08:34:03;24.90;36.60
34815;DHT22;21030;53.912;15.214;2023-03-14T08:36:30;25.20;36.00
34815;DHT22;21030;53.912;15.214;2023-03-14T08:38:57;24.80;36.50
34815;DHT22;21030;53.912;15.214;2023-03-14T08:41:24;25.10;36.30
34815;DHT22;21030;53.912;15.214;2023-03-14T08:43:52;24.70;36.90
34815;DHT22;21030;53.912;15.214;2023-03-14T08:46:19;24.90;36.60
34815;DHT22;21030;53.912;15.214;2023-03-14T08:48:47;24.90;36.10
34815;DHT22;21030;53.912;15.214;2023-03-14T08:51:14;24.70;36.90
34815;DHT22;21030;53.912;15.214;2023-03-14T08:53:42;24.70;36.70
34815;DHT22;21030;53.912;15.214;2023-03-14T08:56:09;25.00;36.10
34815;DHT22;21030;53.912;15.214;2023-03-14T08:58:37;24.90;36.40
34815;DHT22;21030;53.912;15.214;2023-03-14T09:01:09;25.60;35.60
34815;DHT22;21030;53.912;15.214;2023-03-14T09:03:37;25.90;34.50
34815;DHT22;21030;53.912;15.214;2023-03-14T09:06:06;26.10;34.80
34815;DHT22;21030;53.912;15.214;2023-03-14T09:08:34;26.50;34.10
34815;DHT22;21030;53.912;15.214;2023-03-14T09:11:08;27.50;33.00
34815;DHT22;21030;53.912;15.214;2023-03-14T09:13:35;28.80;30.70
34815;DHT22;21030;53.912;15.214;2023-03-14T09:16:03;29.10;30.00
34815;DHT22;21030;53.912;15.214;2023-03-14T09:18:30;29.50;29.80
34815;DHT22;21030;53.912;15.214;2023-03-14T09:20:57;30.40;28.90
34815;DHT22;21030;53.912;15.214;2023-03-14T09:23:25;30.60;28.10
34815;DHT22;21030;53.912;15.214;2023-03-14T09:25:55;29.90;28.70
34815;DHT22;21030;53.912;15.214;2023-03-14T09:28:22;29.90;28.80
34815;DHT22;21030;53.912;15.214;2023-03-14T09:30:49;30.20;28.50
34815;DHT22;21030;53.912;15.214;2023-03-14T09:33:17;30.10;28.40
34815;DHT22;21030;53.912;15.214;2023-03-14T09:35:45;30.00;28.50
34815;DHT22;21030;53.912;15.214;2023-03-14T09:38:12;29.80;28.80
34815;DHT22;21030;53.912;15.214;2023-03-14T09:40:39;30.40;28.50
34815;DHT22;21030;53.912;15.214;2023-03-14T09:43:11;31.10;27.40
34815;DHT22;21030;53.912;15.214;2023-03-14T09:45:40;31.20;26.60
34815;DHT22;21030;53.912;15.214;2023-03-14T09:48:16;30.50;26.90
34815;DHT22;21030;53.912;15.214;2023-03-14T09:50:49;29.60;27.60
34815;DHT22;21030;53.912;15.214;2023-03-14T09:53:20;29.20;28.20
34815;DHT22;21030;53.912;15.214;2023-03-14T09:55:50;29.50;28.20
34815;DHT22;21030;53.912;15.214;2023-03-14T09:58:23;29.80;28.00
34815;DHT22;21030;53.912;15.214;2023-03-14T10:00:55;30.70;27.00
34815;DHT22;21030;53.912;15.214;2023-03-14T10:03:29;32.10;26.30
34815;DHT22;21030;53.912;15.214;2023-03-14T10:05:58;31.30;26.20
34815;DHT22;21030;53.912;15.214;2023-03-14T10:08:25;30.80;26.30
34815;DHT22;21030;53.912;15.214;2023-03-14T10:10:53;30.70;26.80
34815;DHT22;21030;53.912;15.214;2023-03-14T10:13:24;30.80;26.70
34815;DHT22;21030;53.912;15.214;2023-03-14T10:16:04;31.00;26.90
34815;DHT22;21030;53.912;15.214;2023-03-14T10:18:33;30.40;26.40
34815;DHT22;21030;53.912;15.214;2023-03-14T10:21:07;30.50;27.00
34815;DHT22;21030;53.912;15.214;2023-03-14T10:23:43;30.80;27.00
34815;DHT22;21030;53.912;15.214;2023-03-14T10:26:17;31.10;26.70
34815;DHT22;21030;53.912;15.214;2023-03-14T10:29:32;31.20;26.60
34815;DHT22;21030;53.912;15.214;2023-03-14T10:32:04;31.80;26.40
34815;DHT22;21030;53.912;15.214;2023-03-14T10:34:37;32.00;26.20
34815;DHT22;21030;53.912;15.214;2023-03-14T10:37:22;31.90;25.40
34815;DHT22;21030;53.912;15.214;2023-03-14T10:39:54;31.90;25.40
34815;DHT22;21030;53.912;15.214;2023-03-14T10:42:26;31.60;25.60
34815;DHT22;21030;53.912;15.214;2023-03-14T10:45:04;31.20;26.10
34815;DHT22;21030;53.912;15.214;2023-03-14T10:47:36;31.10;25.10
34815;DHT22;21030;53.912;15.214;2023-03-14T10:50:30;31.80;25.30
34815;DHT22;21030;53.912;15.214;2023-03-14T10:53:01;32.40;24.70
34815;DHT22;21030;53.912;15.214;2023-03-14T10:55:43;31.90;24.20
34815;DHT22;21030;53.912;15.214;2023-03-14T10:58:28;31.10;25.20
34815;DHT22;21030;53.912;15.214;2023-03-14T11:04:13;31.50;24.80
34815;DHT22;21030;53.912;15.214;2023-03-14T11:06:59;31.10;25.40
34815;DHT22;21030;53.912;15.214;2023-03-14T11:12:49;32.50;24.00
34815;DHT22;21030;53.912;15.214;2023-03-14T11:21:02;30.90;25.30
34815;DHT22;21030;53.912;15.214;2023-03-14T11:28:47;32.00;24.80
34815;DHT22;21030;53.912;15.214;2023-03-14T11:31:28;33.20;24.50
34815;DHT22;21030;53.912;15.214;2023-03-14T11:34:21;33.40;23.30
34815;DHT22;21030;53.912;15.214;2023-03-14T11:39:45;32.10;23.90
34815;DHT22;21030;53.912;15.214;2023-03-14T11:42:17;31.60;24.00
34815;DHT22;21030;53.912;15.214;2023-03-14T11:44:48;31.80;24.20
34815;DHT22;21030;53.912;15.214;2023-03-14T11:50:31;29.50;25.50
34815;DHT22;21030;53.912;15.214;2023-03-14T11:52:50;28.70;26.60
34815;DHT22;21030;53.912;15.214;2023-03-14T11:55:24;28.30;27.20
34815;DHT22;21030;53.912;15.214;2023-03-14T11:57:56;28.00;27.50
34815;DHT22;21030;53.912;15.214;2023-03-14T12:00:25;27.80;27.80
34815;DHT22;21030;53.912;15.214;2023-03-14T12:11:03;27.60;28.50
34815;DHT22;21030;53.912;15.214;2023-03-14T12:13:34;28.10;28.00
34815;DHT22;21030;53.912;15.214;2023-03-14T12:18:50;28.30;27.70
34815;DHT22;21030;53.912;15.214;2023-03-14T12:21:19;28.30;27.80
34815;DHT22;21030;53.912;15.214;2023-03-14T12:23:53;28.30;27.70
34815;DHT22;21030;53.912;15.214;2023-03-14T12:26:23;28.30;28.10
34815;DHT22;21030;53.912;15.214;2023-03-14T12:29:09;28.80;27.70
34815;DHT22;21030;53.912;15.214;2023-03-14T12:31:48;28.30;27.90
34815;DHT22;21030;53.912;15.214;2023-03-14T12:39:43;27.50;28.80
34815;DHT22;21030;53.912;15.214;2023-03-14T12:42:19;27.40;29.00
34815;DHT22;21030;53.912;15.214;2023-03-14T12:45:27;27.50;28.80
34815;DHT22;21030;53.912;15.214;2023-03-14T12:48:43;26.90;29.20
34815;DHT22;21030;53.912;15.214;2023-03-14T12:51:04;27.40;29.10
34815;DHT22;21030;53.912;15.214;2023-03-14T12:56:24;28.20;29.00
34815;DHT22;21030;53.912;15.214;2023-03-14T13:04:36;28.60;27.90
34815;DHT22;21030;53.912;15.214;2023-03-14T13:07:34;28.00;28.70
34815;DHT22;21030;53.912;15.214;2023-03-14T13:10:16;28.00;29.10
34815;DHT22;21030;53.912;15.214;2023-03-14T13:18:08;26.70;30.80
34815;DHT22;21030;53.912;15.214;2023-03-14T13:20:59;26.50;31.90
34815;DHT22;21030;53.912;15.214;2023-03-14T13:23:27;26.60;31.70
34815;DHT22;21030;53.912;15.214;2023-03-14T13:25:55;26.80;31.10
34815;DHT22;21030;53.912;15.214;2023-03-14T13:28:22;27.30;30.70
34815;DHT22;21030;53.912;15.214;2023-03-14T13:30:58;28.20;30.10
34815;DHT22;21030;53.912;15.214;2023-03-14T13:33:26;28.40;29.20
34815;DHT22;21030;53.912;15.214;2023-03-14T13:35:56;27.40;29.70
34815;DHT22;21030;53.912;15.214;2023-03-14T13:38:28;26.80;30.80
34815;DHT22;21030;53.912;15.214;2023-03-14T13:41:00;26.60;31.60
34815;DHT22;21030;53.912;15.214;2023-03-14T13:43:39;26.80;32.30
34815;DHT22;21030;53.912;15.214;2023-03-14T13:48:58;28.00;32.00
34815;DHT22;21030;53.912;15.214;2023-03-14T13:51:26;27.20;32.00
34815;DHT22;21030;53.912;15.214;2023-03-14T13:53:58;26.30;33.40
34815;DHT22;21030;53.912;15.214;2023-03-14T13:56:33;26.60;33.70
34815;DHT22;21030;53.912;15.214;2023-03-14T13:59:00;26.10;33.00
34815;DHT22;21030;53.912;15.214;2023-03-14T14:01:32;26.50;33.20
34815;DHT22;21030;53.912;15.214;2023-03-14T14:04:15;27.20;32.00
34815;DHT22;21030;53.912;15.214;2023-03-14T14:07:01;27.40;31.30
34815;DHT22;21030;53.912;15.214;2023-03-14T14:09:41;27.40;31.10
34815;DHT22;21030;53.912;15.214;2023-03-14T14:12:34;26.70;31.40
34815;DHT22;21030;53.912;15.214;2023-03-14T14:15:11;26.60;32.10
34815;DHT22;21030;53.912;15.214;2023-03-14T14:20:30;26.20;33.10
34815;DHT22;21030;53.912;15.214;2023-03-14T14:23:13;25.70;34.30
34815;DHT22;21030;53.912;15.214;2023-03-14T14:25:43;26.30;33.80
34815;DHT22;21030;53.912;15.214;2023-03-14T14:28:34;26.20;34.50
34815;DHT22;21030;53.912;15.214;2023-03-14T14:31:02;26.70;33.50
34815;DHT22;21030;53.912;15.214;2023-03-14T14:33:44;26.30;32.90
34815;DHT22;21030;53.912;15.214;2023-03-14T14:36:16;26.30;33.90
34815;DHT22;21030;53.912;15.214;2023-03-14T14:39:03;26.90;33.10
34815;DHT22;21030;53.912;15.214;2023-03-14T14:41:35;27.30;32.20
34815;DHT22;21030;53.912;15.214;2023-03-14T14:44:06;27.20;32.00
34815;DHT22;21030;53.912;15.214;2023-03-14T14:46:36;26.80;32.50
34815;DHT22;21030;53.912;15.214;2023-03-14T14:49:09;26.70;33.10
34815;DHT22;21030;53.912;15.214;2023-03-14T14:51:48;27.60;32.30
34815;DHT22;21030;53.912;15.214;2023-03-14T14:56:52;26.50;32.80
34815;DHT22;21030;53.912;15.214;2023-03-14T14:59:27;26.70;33.00
34815;DHT22;21030;53.912;15.214;2023-03-14T15:02:01;26.90;32.20
34815;DHT22;21030;53.912;15.214;2023-03-14T15:04:32;27.40;32.10
34815;DHT22;21030;53.912;15.214;2023-03-14T15:06:59;27.60;31.70
34815;DHT22;21030;53.912;15.214;2023-03-14T15:09:26;26.30;32.70
34815;DHT22;21030;53.912;15.214;2023-03-14T15:11:53;26.10;34.00
34815;DHT22;21030;53.912;15.214;2023-03-14T15:14:20;25.70;34.70
34815;DHT22;21030;53.912;15.214;2023-03-14T15:16:47;25.70;35.20
34815;DHT22;21030;53.912;15.214;2023-03-14T15:19:22;25.90;35.30
34815;DHT22;21030;53.912;15.214;2023-03-14T15:21:54;26.50;34.40
34815;DHT22;21030;53.912;15.214;2023-03-14T15:24:22;26.60;34.20
34815;DHT22;21030;53.912;15.214;2023-03-14T15:26:49;25.40;35.50
34815;DHT22;21030;53.912;15.214;2023-03-14T15:29:17;25.10;36.40
34815;DHT22;21030;53.912;15.214;2023-03-14T15:31:44;26.10;31.00
34815;DHT22;21030;53.912;15.214;2023-03-14T15:34:13;28.10;28.50
34815;DHT22;21030;53.912;15.214;2023-03-14T15:36:41;28.60;26.80
34815;DHT22;21030;53.912;15.214;2023-03-14T15:39:10;28.60;26.40
34815;DHT22;21030;53.912;15.214;2023-03-14T15:41:37;28.60;26.10
34815;DHT22;21030;53.912;15.214;2023-03-14T15:44:05;28.60;26.20
34815;DHT22;21030;53.912;15.214;2023-03-14T15:46:32;28.60;26.40
34815;DHT22;21030;53.912;15.214;2023-03-14T15:48:59;28.10;26.30
34815;DHT22;21030;53.912;15.214;2023-03-14T15:51:26;28.20;26.30
34815;DHT22;21030;53.912;15.214;2023-03-14T15:53:53;28.10;26.70
34815;DHT22;21030;53.912;15.214;2023-03-14T15:56:20;28.80;26.60
34815;DHT22;21030;53.912;15.214;2023-03-14T15:58:50;29.20;26.00
34815;DHT22;21030;53.912;15.214;2023-03-14T16:01:18;29.20;25.70
34815;DHT22;21030;53.912;15.214;2023-03-14T16:03:45;29.30;25.90
34815;DHT22;21030;53.912;15.214;2023-03-14T16:06:13;28.60;26.00
34815;DHT22;21030;53.912;15.214;2023-03-14T16:08:41;28.50;26.10
34815;DHT22;21030;53.912;15.214;2023-03-14T16:11:13;28.50;25.90
34815;DHT22;21030;53.912;15.214;2023-03-14T16:13:41;28.20;25.80
34815;DHT22;21030;53.912;15.214;2023-03-14T16:16:09;28.10;25.90
34815;DHT22;21030;53.912;15.214;2023-03-14T16:18:37;27.80;25.80
34815;DHT22;21030;53.912;15.214;2023-03-14T16:21:10;27.40;25.90
34815;DHT22;21030;53.912;15.214;2023-03-14T16:23:38;27.40;25.60
34815;DHT22;21030;53.912;15.214;2023-03-14T16:26:09;26.80;25.50
34815;DHT22;21030;53.912;15.214;2023-03-14T16:28:36;26.20;26.00
34815;DHT22;21030;53.912;15.214;2023-03-14T16:31:05;27.10;26.10
34815;DHT22;21030;53.912;15.214;2023-03-14T16:33:34;27.90;25.30
34815;DHT22;21030;53.912;15.214;2023-03-14T16:36:03;27.70;24.80
34815;DHT22;21030;53.912;15.214;2023-03-14T16:38:40;28.30;25.10
34815;DHT22;21030;53.912;15.214;2023-03-14T16:41:14;28.90;24.20
34815;DHT22;21030;53.912;15.214;2023-03-14T16:43:42;29.00;24.20
34815;DHT22;21030;53.912;15.214;2023-03-14T16:46:16;28.80;24.20
34815;DHT22;21030;53.912;15.214;2023-03-14T16:48:44;27.90;24.40
34815;DHT22;21030;53.912;15.214;2023-03-14T16:51:12;28.10;24.40